TimeEST,TemperatureF,Dew PointF,Humidity,Sea Level PressureIn,VisibilityMPH,Wind Direction,Wind SpeedMPH,Gust SpeedMPH,PrecipitationIn,Events,Conditions,WindDirDegrees,DateUTC
12:14 AM,29.8,21.0,70,30.04,10.0,East,6.9,-,N/A,,Clear,90,2013-02-26 05:14:00
12:34 AM,29.7,21.0,70,30.03,10.0,East,9.2,-,N/A,,Clear,80,2013-02-26 05:34:00
12:55 AM,29.3,21.2,72,30.02,10.0,ENE,11.5,-,N/A,,Clear,70,2013-02-26 05:55:00
1:14 AM,29.3,21.0,71,30.02,10.0,East,9.2,-,N/A,,Clear,80,2013-02-26 06:14:00
1:34 AM,28.9,21.2,73,30.01,10.0,ENE,9.2,-,N/A,,Clear,70,2013-02-26 06:34:00
1:55 AM,29.3,21.0,71,30.01,10.0,ENE,10.4,-,N/A,,Clear,70,2013-02-26 06:55:00
2:14 AM,29.3,21.2,72,30.00,10.0,ENE,11.5,-,N/A,,Clear,70,2013-02-26 07:14:00
2:34 AM,29.3,21.2,72,29.99,10.0,East,9.2,-,N/A,,Clear,80,2013-02-26 07:34:00
2:54 AM,29.3,21.2,72,29.99,10.0,East,11.5,-,N/A,,Clear,80,2013-02-26 07:54:00
3:14 AM,29.3,21.2,72,29.98,10.0,East,10.4,-,N/A,,Clear,80,2013-02-26 08:14:00
3:35 AM,29.3,21.2,72,29.95,10.0,ENE,13.8,17.3,N/A,,Clear,70,2013-02-26 08:35:00
3:54 AM,28.9,21.2,73,29.95,10.0,ENE,10.4,-,N/A,,Clear,70,2013-02-26 08:54:00
4:14 AM,29.1,21.0,72,29.92,10.0,ENE,12.7,18.4,N/A,,Clear,70,2013-02-26 09:14:00
4:35 AM,29.1,21.0,72,29.90,10.0,ENE,13.8,19.6,N/A,,Clear,70,2013-02-26 09:35:00
4:54 AM,29.1,21.0,72,29.89,10.0,ENE,12.7,17.3,N/A,,Clear,70,2013-02-26 09:54:00
5:14 AM,29.3,21.0,71,29.89,10.0,ENE,13.8,-,N/A,,Clear,60,2013-02-26 10:14:00
5:34 AM,29.8,21.2,70,29.90,10.0,East,10.4,-,N/A,,Clear,90,2013-02-26 10:34:00
5:54 AM,29.7,21.4,71,29.88,10.0,ENE,12.7,-,N/A,,Clear,70,2013-02-26 10:54:00
6:14 AM,30.0,21.4,70,29.88,10.0,ENE,15.0,-,N/A,,Clear,70,2013-02-26 11:14:00
6:34 AM,30.2,21.2,69,29.86,10.0,ENE,17.3,-,N/A,,Clear,70,2013-02-26 11:34:00
6:54 AM,30.0,21.7,71,29.84,10.0,ENE,15.0,21.9,N/A,,Clear,60,2013-02-26 11:54:00
7:15 AM,30.6,21.4,69,29.86,10.0,ENE,11.5,-,N/A,,Clear,70,2013-02-26 12:15:00
7:34 AM,30.9,21.6,68,29.87,10.0,East,11.5,-,N/A,,Clear,80,2013-02-26 12:34:00
7:54 AM,31.1,21.9,69,29.84,10.0,NE,17.3,23.0,N/A,,Clear,50,2013-02-26 12:54:00
8:15 AM,31.8,21.7,66,29.85,10.0,ENE,16.1,20.7,N/A,,Clear,70,2013-02-26 13:15:00
8:34 AM,32.0,21.7,66,29.83,10.0,ENE,17.3,26.5,N/A,,Clear,70,2013-02-26 13:34:00
8:54 AM,32.0,21.9,66,29.81,10.0,ENE,13.8,21.9,N/A,,Clear,70,2013-02-26 13:54:00
9:15 AM,32.0,22.3,67,29.81,10.0,East,12.7,19.6,N/A,,Clear,80,2013-02-26 14:15:00
9:34 AM,32.4,22.1,66,29.79,10.0,ENE,18.4,24.2,N/A,,Mostly Cloudy,70,2013-02-26 14:34:00
9:54 AM,32.9,22.3,65,29.77,10.0,East,15.0,24.2,N/A,,Scattered Clouds,80,2013-02-26 14:54:00
10:14 AM,33.4,22.3,64,29.74,10.0,ENE,18.4,26.5,N/A,,Scattered Clouds,70,2013-02-26 15:14:00
10:34 AM,33.8,22.1,62,29.73,10.0,East,15.0,26.5,N/A,,Mostly Cloudy,80,2013-02-26 15:34:00
10:55 AM,33.8,22.5,63,29.72,10.0,East,18.4,28.8,N/A,,Overcast,80,2013-02-26 15:55:00
11:14 AM,33.8,22.8,64,29.71,10.0,East,16.1,26.5,N/A,,Overcast,80,2013-02-26 16:14:00
11:34 AM,33.8,24.1,68,29.69,5.0,East,18.4,28.8,N/A,Snow,Light Snow,80,2013-02-26 16:34:00
11:55 AM,33.1,26.2,76,29.67,4.0,East,15.0,23.0,N/A,Snow,Light Snow,80,2013-02-26 16:55:00
12:14 PM,32.9,27.1,79,29.65,4.0,East,18.4,26.5,N/A,Snow,Light Snow,80,2013-02-26 17:14:00
12:34 PM,32.5,27.9,83,29.63,4.0,East,21.9,32.2,N/A,Snow,Light Snow,80,2013-02-26 17:34:00
12:54 PM,32.4,28.0,84,29.61,5.0,East,21.9,27.6,N/A,Snow,Light Snow,80,2013-02-26 17:54:00
1:14 PM,32.4,28.0,84,29.59,5.0,ENE,17.3,31.1,N/A,,Overcast,70,2013-02-26 18:14:00
1:34 PM,32.5,28.6,85,29.58,4.0,East,16.1,28.8,N/A,Snow,Light Snow,80,2013-02-26 18:34:00
1:54 PM,32.5,29.1,87,29.58,2.5,East,17.3,27.6,N/A,Snow,Light Snow,80,2013-02-26 18:54:00
2:14 PM,32.5,29.7,89,29.57,2.0,East,17.3,26.5,N/A,Snow,Light Snow,80,2013-02-26 19:14:00
2:35 PM,32.9,30.0,89,29.57,3.0,East,16.1,25.3,N/A,Snow,Light Snow,80,2013-02-26 19:35:00
2:54 PM,32.9,30.2,90,29.56,3.0,East,17.3,23.0,N/A,Snow,Light Snow,80,2013-02-26 19:54:00
3:14 PM,32.9,30.6,91,29.54,3.0,East,13.8,26.5,N/A,Snow,Light Snow,80,2013-02-26 20:14:00
3:34 PM,32.9,30.6,91,29.54,5.0,East,18.4,26.5,N/A,Snow,Light Snow,80,2013-02-26 20:34:00
3:54 PM,33.1,30.7,91,29.54,1.8,East,17.3,23.0,N/A,Snow,Light Snow,80,2013-02-26 20:54:00
4:15 PM,32.9,31.1,93,29.54,0.8,East,16.1,23.0,N/A,Snow,Light Snow,80,2013-02-26 21:15:00
4:34 PM,32.9,31.1,93,29.53,0.5,East,13.8,24.2,N/A,Snow,Snow,80,2013-02-26 21:34:00
4:54 PM,32.7,31.5,95,29.52,0.5,East,16.1,23.0,N/A,Snow,Light Snow,80,2013-02-26 21:54:00
5:15 PM,32.9,31.5,94,29.52,1.2,East,17.3,23.0,N/A,Snow,Light Snow,80,2013-02-26 22:15:00
5:34 PM,32.9,31.1,93,29.51,1.5,East,17.3,24.2,N/A,Snow,Light Snow,80,2013-02-26 22:34:00
5:54 PM,32.9,31.3,94,29.51,1.2,East,17.3,25.3,N/A,Snow,Light Snow,80,2013-02-26 22:54:00
6:15 PM,32.9,31.5,94,29.50,1.2,East,12.7,20.7,N/A,Snow,Light Snow,80,2013-02-26 23:15:00
6:34 PM,32.9,31.5,94,29.50,1.8,ENE,15.0,20.7,N/A,Snow,Light Snow,70,2013-02-26 23:34:00
6:54 PM,32.9,31.6,95,29.50,1.5,East,15.0,20.7,N/A,Snow,Light Snow,80,2013-02-26 23:54:00
7:15 PM,32.9,31.8,96,29.50,1.5,ENE,12.7,18.4,N/A,Snow,Light Snow,70,2013-02-27 00:15:00
7:34 PM,32.9,31.8,96,29.50,1.5,ENE,11.5,-,N/A,Snow,Light Snow,70,2013-02-27 00:34:00
7:54 PM,32.9,31.8,96,29.49,1.5,ENE,10.4,-,N/A,Snow,Light Snow,70,2013-02-27 00:54:00
8:15 PM,32.9,32.0,96,29.49,2.5,ENE,11.5,-,N/A,Snow,Light Snow,70,2013-02-27 01:15:00
8:34 PM,32.9,32.0,96,29.48,2.0,ENE,10.4,19.6,N/A,Snow,Light Snow,70,2013-02-27 01:34:00
8:54 PM,32.9,32.0,96,29.48,1.5,ENE,9.2,-,N/A,Snow,Light Snow,70,2013-02-27 01:54:00
9:14 PM,32.9,32.0,96,29.48,3.0,ENE,11.5,17.3,N/A,Snow,Light Snow,70,2013-02-27 02:14:00
9:34 PM,33.1,32.0,96,29.47,3.0,East,11.5,17.3,N/A,Snow,Light Snow,80,2013-02-27 02:34:00
9:54 PM,32.9,31.8,96,29.46,4.0,ENE,9.2,-,N/A,Snow,Light Snow,70,2013-02-27 02:54:00
10:14 PM,32.9,31.8,96,29.46,4.0,ENE,9.2,-,N/A,Snow,Light Snow,70,2013-02-27 03:14:00
10:34 PM,32.9,32.0,96,29.45,5.0,ENE,8.1,-,N/A,Snow,Light Snow,70,2013-02-27 03:34:00
10:55 PM,32.9,31.8,96,29.45,5.0,ENE,8.1,-,N/A,Snow,Light Snow,60,2013-02-27 03:55:00
11:14 PM,32.9,32.0,96,29.44,5.0,ENE,8.1,-,N/A,Snow,Light Snow,60,2013-02-27 04:14:00
11:34 PM,32.9,32.0,96,29.44,5.0,ENE,8.1,-,N/A,Snow,Light Snow,60,2013-02-27 04:34:00
11:55 PM,32.9,32.0,96,29.44,5.0,NE,6.9,-,N/A,Snow,Light Snow,50,2013-02-27 04:55:00